Time;durP1;ratioP1;P1;durP2;ratioP2;P2;SDS_P1;SDS_P2;PMS_P1;PMS_P2;Temp;Humidity;BMP_temperature;BMP_pressure;BME280_temperature;BME280_humidity;BME280_pressure;Samples;Min_cycle;Max_cycle;Signal;HPM_P1;HPM_P2
2022/04/20 00:00:43;;;;;;;7.57;4.80;;;11.70;99.90;;;;;;6270525;22;20746;-58
2022/04/20 00:03:09;;;;;;;7.93;4.93;;;11.60;99.90;;;;;;6269994;22;20348;-59
2022/04/20 00:05:34;;;;;;;7.20;4.83;;;11.60;99.90;;;;;;6269736;22;20406;-55
2022/04/20 00:08:01;;;;;;;7.35;4.82;;;11.60;99.90;;;;;;6268653;22;20385;-56
2022/04/20 00:10:28;;;;;;;8.75;5.13;;;11.50;99.90;;;;;;6271549;22;20340;-57
2022/04/20 00:12:53;;;;;;;8.52;5.25;;;11.50;99.90;;;;;;6268972;22;20359;-58
2022/04/20 00:15:19;;;;;;;6.50;5.13;;;11.50;99.90;;;;;;6266730;22;20681;-56
2022/04/20 00:17:44;;;;;;;6.95;5.35;;;11.50;99.90;;;;;;6269058;22;20458;-57
2022/04/20 00:20:10;;;;;;;7.63;5.20;;;11.50;99.90;;;;;;6271249;22;20459;-59
2022/04/20 00:22:36;;;;;;;9.00;5.37;;;11.40;99.90;;;;;;6269807;22;20765;-57
2022/04/20 00:25:01;;;;;;;8.98;5.55;;;11.30;99.90;;;;;;6268956;22;20388;-59
2022/04/20 00:27:27;;;;;;;8.65;6.05;;;11.30;99.90;;;;;;6270029;22;20551;-58
2022/04/20 00:29:53;;;;;;;7.77;5.13;;;11.20;99.90;;;;;;6266441;22;20340;-59
2022/04/20 00:32:18;;;;;;;8.25;5.65;;;11.20;99.90;;;;;;6268716;22;20368;-58
2022/04/20 00:34:44;;;;;;;6.75;5.18;;;11.20;99.90;;;;;;6269003;22;20375;-58
2022/04/20 00:37:09;;;;;;;8.13;5.80;;;11.10;99.90;;;;;;6270404;22;20380;-56
2022/04/20 00:39:37;;;;;;;8.25;5.90;;;11.10;99.90;;;;;;6269621;22;20642;-59
2022/04/20 00:42:04;;;;;;;9.43;5.85;;;11.00;99.90;;;;;;6269757;22;20374;-55
2022/04/20 00:44:29;;;;;;;8.23;5.97;;;11.10;99.90;;;;;;6271114;22;20428;-58
2022/04/20 00:46:56;;;;;;;9.00;6.10;;;11.00;99.90;;;;;;6270143;22;20370;-55
2022/04/20 00:49:22;;;;;;;7.55;5.63;;;10.80;99.90;;;;;;6245477;22;20442;-57
2022/04/20 00:51:57;;;;;;;7.57;5.60;;;10.80;99.90;;;;;;6248797;22;20360;-55
2022/04/20 00:54:23;;;;;;;8.10;5.55;;;10.90;99.90;;;;;;6249516;22;20344;-57
2022/04/20 00:56:49;;;;;;;9.05;6.22;;;10.80;99.90;;;;;;6249466;22;20355;-55
2022/04/20 00:59:18;;;;;;;9.68;6.35;;;10.80;99.90;;;;;;6249571;22;20345;-54
2022/04/20 01:01:44;;;;;;;8.73;6.38;;;10.70;99.90;;;;;;6247052;22;20542;-59
2022/04/20 01:04:10;;;;;;;9.20;5.73;;;10.80;99.90;;;;;;6245286;22;20493;-53
2022/04/20 01:06:35;;;;;;;11.00;6.30;;;10.80;99.90;;;;;;6245312;22;20411;-56
2022/04/20 01:09:01;;;;;;;10.63;6.88;;;10.80;99.90;;;;;;6245314;22;20375;-58
2022/04/20 01:11:27;;;;;;;9.65;7.10;;;10.80;99.90;;;;;;6246309;22;20363;-56
2022/04/20 01:13:53;;;;;;;8.88;6.90;;;10.70;99.90;;;;;;6246079;22;20402;-58
2022/04/20 01:16:18;;;;;;;11.02;7.10;;;10.80;99.90;;;;;;6244860;22;20439;-59
2022/04/20 01:18:44;;;;;;;9.83;6.80;;;10.70;99.90;;;;;;6246954;22;20356;-57
2022/04/20 01:21:12;;;;;;;9.87;7.00;;;10.60;99.90;;;;;;6245455;22;20364;-57
2022/04/20 01:23:38;;;;;;;10.15;7.47;;;10.60;99.90;;;;;;6244650;22;20887;-56
2022/04/20 01:26:08;;;;;;;10.38;7.22;;;10.50;99.90;;;;;;6242099;22;20348;-54
2022/04/20 01:28:36;;;;;;;8.10;6.43;;;10.50;99.90;;;;;;6242467;22;20426;-55
2022/04/20 01:31:03;;;;;;;10.52;7.35;;;10.50;99.90;;;;;;6241953;22;20380;-55
2022/04/20 01:33:29;;;;;;;10.80;7.43;;;10.60;99.90;;;;;;6242066;22;20439;-54
2022/04/20 01:35:55;;;;;;;8.98;7.25;;;10.60;99.90;;;;;;6242595;22;20368;-57
2022/04/20 01:38:20;;;;;;;8.80;6.90;;;10.50;99.90;;;;;;6273059;22;20449;-55
2022/04/20 01:40:46;;;;;;;9.20;6.90;;;10.50;99.90;;;;;;6245636;22;20383;-58
2022/04/20 01:43:11;;;;;;;9.53;7.00;;;10.50;99.90;;;;;;6248131;22;20438;-57
2022/04/20 01:45:37;;;;;;;8.05;6.45;;;10.50;99.90;;;;;;6245235;22;20354;-59
2022/04/20 01:48:03;;;;;;;8.27;6.63;;;10.40;99.90;;;;;;6260025;22;20567;-59
2022/04/20 01:50:29;;;;;;;8.18;7.13;;;10.30;99.90;;;;;;6274583;22;20352;-58
2022/04/20 01:52:55;;;;;;;10.98;7.15;;;10.30;99.90;;;;;;6274788;22;20406;-57
2022/04/20 01:55:20;;;;;;;10.00;6.43;;;10.30;99.90;;;;;;6271613;22;20346;-59
2022/04/20 01:57:46;;;;;;;7.73;6.80;;;10.30;99.90;;;;;;6274849;22;20355;-59
2022/04/20 02:00:13;;;;;;;9.43;6.70;;;10.30;99.90;;;;;;6274745;22;20587;-59
2022/04/20 02:02:38;;;;;;;10.60;6.75;;;10.20;99.90;;;;;;6271841;22;20587;-58
2022/04/20 02:05:07;;;;;;;8.43;6.17;;;10.20;99.90;;;;;;6271369;22;20347;-58
2022/04/20 02:07:33;;;;;;;10.52;6.50;;;10.20;99.90;;;;;;6275201;22;20368;-59
2022/04/20 02:09:59;;;;;;;9.90;6.85;;;10.20;99.90;;;;;;6273245;22;20356;-58
2022/04/20 02:12:24;;;;;;;10.03;6.50;;;10.10;99.90;;;;;;6271132;22;20425;-57
2022/04/20 02:14:50;;;;;;;10.33;6.70;;;10.20;99.90;;;;;;6271503;22;20371;-58
2022/04/20 02:17:16;;;;;;;9.55;6.60;;;10.10;99.90;;;;;;6270143;22;20352;-53
2022/04/20 02:19:42;;;;;;;8.73;5.97;;;10.10;99.90;;;;;;6267188;22;20352;-57
2022/04/20 02:22:07;;;;;;;10.15;6.30;;;10.00;99.90;;;;;;6269592;22;20570;-57
2022/04/20 02:24:33;;;;;;;7.75;6.18;;;10.00;99.90;;;;;;6267921;22;20395;-59
2022/04/20 02:26:59;;;;;;;8.37;6.43;;;10.00;99.90;;;;;;6269984;22;20768;-59
2022/04/20 02:29:24;;;;;;;9.68;6.03;;;10.00;99.90;;;;;;6267063;22;20398;-56
2022/04/20 02:31:50;;;;;;;8.10;6.38;;;10.00;99.90;;;;;;6268704;22;20436;-59
2022/04/20 02:34:15;;;;;;;10.37;6.00;;;10.00;99.90;;;;;;6271069;22;20358;-59
2022/04/20 02:36:42;;;;;;;9.60;5.78;;;10.00;99.90;;;;;;6272088;22;20733;-58
2022/04/20 02:39:07;;;;;;;7.28;6.25;;;10.00;99.90;;;;;;6274154;22;20340;-58
2022/04/20 02:41:36;;;;;;;9.63;6.10;;;9.90;99.90;;;;;;6270179;22;20374;-58
2022/04/20 02:44:03;;;;;;;8.00;5.82;;;9.80;99.90;;;;;;6270729;22;20344;-58
2022/04/20 02:46:29;;;;;;;8.57;5.93;;;9.80;99.90;;;;;;6271162;22;20523;-59
2022/04/20 02:48:55;;;;;;;10.32;5.90;;;9.70;99.90;;;;;;6270668;22;20380;-55
2022/04/20 02:51:21;;;;;;;9.53;5.90;;;9.70;99.90;;;;;;6271256;22;20382;-57
2022/04/20 02:53:46;;;;;;;9.13;5.80;;;9.60;99.90;;;;;;6271979;22;20340;-58
2022/04/20 02:56:12;;;;;;;7.93;5.38;;;9.60;99.90;;;;;;6270946;22;20694;-59
2022/04/20 02:58:37;;;;;;;8.45;5.40;;;9.60;99.90;;;;;;6272438;22;20372;-59
2022/04/20 03:01:03;;;;;;;8.50;5.67;;;9.60;99.90;;;;;;6268216;22;20352;-57
2022/04/20 03:03:29;;;;;;;6.50;5.43;;;9.50;99.90;;;;;;6265164;22;20539;-54
2022/04/20 03:05:54;;;;;;;7.35;5.40;;;9.50;99.90;;;;;;6267298;22;20368;-55
2022/04/20 03:08:48;;;;;;;6.77;5.30;;;9.50;99.90;;;;;;6268070;22;20451;-54
2022/04/20 03:11:13;;;;;;;7.85;5.38;;;9.60;99.90;;;;;;6267410;22;20437;-56
2022/04/20 03:13:39;;;;;;;8.10;5.77;;;9.50;99.90;;;;;;6266877;22;20618;-57
2022/04/20 03:16:05;;;;;;;7.47;5.47;;;9.50;99.90;;;;;;6266549;22;20611;-56
2022/04/20 03:18:32;;;;;;;7.93;5.57;;;9.40;99.90;;;;;;6267187;22;20355;-58
2022/04/20 03:20:59;;;;;;;7.88;5.47;;;9.30;99.90;;;;;;6269695;22;20394;-54
2022/04/20 03:23:25;;;;;;;8.75;5.40;;;9.20;99.90;;;;;;6268729;22;20363;-59
2022/04/20 03:25:50;;;;;;;7.63;5.30;;;9.20;99.90;;;;;;6271866;22;20491;-56
2022/04/20 03:28:16;;;;;;;7.87;5.37;;;9.30;99.90;;;;;;6273340;22;20368;-56
2022/04/20 03:30:41;;;;;;;7.28;5.40;;;9.20;99.90;;;;;;6273543;22;20436;-57
2022/04/20 03:33:08;;;;;;;7.87;5.27;;;9.10;99.90;;;;;;6270113;22;20348;-57
2022/04/20 03:35:35;;;;;;;5.93;5.25;;;9.10;99.90;;;;;;6266970;22;20379;-59
2022/04/20 03:38:00;;;;;;;7.35;5.13;;;9.20;99.90;;;;;;6267994;22;20354;-59
2022/04/20 03:40:27;;;;;;;7.30;5.50;;;9.20;99.90;;;;;;6269910;22;20504;-57
2022/04/20 03:42:52;;;;;;;8.65;5.13;;;9.10;99.90;;;;;;6272040;22;20383;-57
2022/04/20 03:45:18;;;;;;;6.13;5.40;;;9.10;99.90;;;;;;6270223;22;20633;-58
2022/04/20 03:47:43;;;;;;;6.37;5.00;;;9.10;99.90;;;;;;6270787;22;20390;-57
2022/04/20 03:50:09;;;;;;;8.60;5.10;;;9.00;99.90;;;;;;6270868;22;20429;-58
2022/04/20 03:52:37;;;;;;;7.67;5.30;;;9.10;99.90;;;;;;6271360;22;20441;-58
2022/04/20 03:55:03;;;;;;;7.27;5.00;;;9.10;99.90;;;;;;6271863;22;20348;-57
2022/04/20 03:57:29;;;;;;;6.20;5.20;;;9.00;99.90;;;;;;6269329;22;20412;-56
2022/04/20 03:59:54;;;;;;;7.53;5.00;;;9.00;99.90;;;;;;6269286;22;20749;-57
2022/04/20 04:02:20;;;;;;;8.25;4.93;;;8.80;99.90;;;;;;6270114;22;20352;-57
2022/04/20 04:04:45;;;;;;;7.07;4.82;;;8.90;99.90;;;;;;6267310;22;20355;-59
2022/04/20 04:07:11;;;;;;;6.77;4.90;;;8.80;99.90;;;;;;6269534;22;20689;-56
2022/04/20 04:09:38;;;;;;;8.50;4.95;;;8.90;99.90;;;;;;6268958;22;20640;-56
2022/04/20 04:12:04;;;;;;;6.72;4.97;;;8.80;99.90;;;;;;6270468;22;20355;-59
2022/04/20 04:14:30;;;;;;;7.67;4.83;;;8.80;99.90;;;;;;6272440;22;20336;-55
2022/04/20 04:16:55;;;;;;;9.07;5.00;;;8.80;99.90;;;;;;6270955;22;20341;-58
2022/04/20 04:19:21;;;;;;;7.45;4.97;;;8.80;99.90;;;;;;6272840;22;20336;-59
2022/04/20 04:21:47;;;;;;;6.10;4.68;;;8.80;99.90;;;;;;6274448;22;20482;-58
2022/04/20 04:24:34;;;;;;;5.53;4.40;;;8.80;99.90;;;;;;6269300;22;20359;-59
2022/04/20 04:26:59;;;;;;;8.00;5.18;;;8.70;99.90;;;;;;6269860;22;20627;-56
2022/04/20 04:29:25;;;;;;;6.97;4.90;;;8.70;99.90;;;;;;6270652;22;20746;-57
2022/04/20 04:31:50;;;;;;;5.63;4.40;;;8.70;99.90;;;;;;6270624;22;20599;-55
2022/04/20 04:34:16;;;;;;;6.75;4.43;;;8.80;99.90;;;;;;6269186;22;20351;-55
2022/04/20 04:36:43;;;;;;;8.15;4.60;;;8.80;99.90;;;;;;6268422;22;20360;-59
2022/04/20 04:39:09;;;;;;;6.20;4.37;;;8.70;99.90;;;;;;6267734;22;20430;-56
2022/04/20 04:41:34;;;;;;;5.20;4.30;;;8.60;99.90;;;;;;6268398;22;20360;-59
2022/04/20 04:43:59;;;;;;;6.80;4.07;;;8.70;99.90;;;;;;6268337;22;20340;-59
2022/04/20 04:49:09;;;;;;;5.85;4.45;;;8.80;99.90;;;;;;6271788;22;20441;-55
2022/04/20 04:51:35;;;;;;;7.33;4.70;;;8.90;99.90;;;;;;6270551;22;20714;-59
2022/04/20 04:54:00;;;;;;;5.43;4.10;;;8.80;99.90;;;;;;6270309;22;20352;-56
2022/04/20 04:56:26;;;;;;;7.43;4.38;;;8.80;99.90;;;;;;6266421;22;20501;-58
2022/04/20 04:58:52;;;;;;;5.60;4.37;;;8.80;99.90;;;;;;6265495;22;20344;-58
2022/04/20 05:01:17;;;;;;;7.93;4.20;;;8.80;99.90;;;;;;6264328;22;20344;-55
2022/04/20 05:03:43;;;;;;;7.55;4.30;;;8.80;99.90;;;;;;6261452;22;20883;-57
2022/04/20 05:06:08;;;;;;;7.53;4.40;;;8.80;99.90;;;;;;6262755;22;20360;-58
2022/04/20 05:08:34;;;;;;;5.57;4.10;;;8.90;99.90;;;;;;6259105;22;20372;-58
2022/04/20 05:10:59;;;;;;;5.28;3.70;;;8.80;99.90;;;;;;6261851;22;20380;-55
2022/04/20 05:13:25;;;;;;;6.18;4.00;;;8.80;99.90;;;;;;6263363;22;20372;-59
2022/04/20 05:15:50;;;;;;;7.30;4.23;;;8.90;99.90;;;;;;6264034;22;20351;-56
2022/04/20 05:18:16;;;;;;;6.35;4.35;;;8.90;99.90;;;;;;6261533;22;20417;-58
2022/04/20 05:20:41;;;;;;;8.23;4.20;;;8.90;99.90;;;;;;6261988;22;20855;-57
2022/04/20 05:23:08;;;;;;;4.27;3.87;;;9.00;99.90;;;;;;6263027;22;20436;-58
2022/04/20 05:25:33;;;;;;;9.27;3.60;;;9.00;99.90;;;;;;6263891;22;20529;-59
2022/04/20 05:27:59;;;;;;;4.40;3.33;;;9.00;99.90;;;;;;6265177;22;20433;-57
2022/04/20 05:30:24;;;;;;;4.57;3.53;;;9.00;99.90;;;;;;6262596;22;20363;-58
2022/04/20 05:32:50;;;;;;;4.82;3.65;;;9.10;99.90;;;;;;6267029;22;20384;-59
2022/04/20 05:35:16;;;;;;;5.20;3.60;;;9.10;99.90;;;;;;6269474;22;20340;-58
2022/04/20 05:43:09;;;;;;;5.20;3.50;;;9.40;99.90;;;;;;6267774;22;20456;-55
2022/04/20 05:45:36;;;;;;;4.90;3.50;;;9.50;99.90;;;;;;6268178;22;20499;-57
2022/04/20 05:48:03;;;;;;;5.50;3.60;;;9.60;99.90;;;;;;6265154;22;20788;-57
2022/04/20 05:50:28;;;;;;;7.13;3.70;;;9.50;99.90;;;;;;6267767;22;20681;-56
2022/04/20 05:52:54;;;;;;;5.90;3.37;;;9.50;99.90;;;;;;6266679;22;20439;-59
2022/04/20 05:55:20;;;;;;;4.68;3.30;;;9.60;99.90;;;;;;6268200;22;20358;-57
2022/04/20 05:57:47;;;;;;;4.13;3.03;;;9.60;99.90;;;;;;6266606;22;20766;-56
2022/04/20 06:00:16;;;;;;;6.03;3.72;;;9.70;99.90;;;;;;6265602;22;20737;-57
2022/04/20 06:02:43;;;;;;;4.53;3.15;;;9.80;99.90;;;;;;6261222;22;20405;-55
2022/04/20 06:05:08;;;;;;;3.95;3.00;;;9.80;99.90;;;;;;6259591;22;20642;-56
2022/04/20 06:07:34;;;;;;;7.20;3.60;;;9.80;99.90;;;;;;6257873;22;20372;-59
2022/04/20 06:10:00;;;;;;;5.32;3.25;;;9.90;99.90;;;;;;6257435;22;20758;-58
2022/04/20 06:12:25;;;;;;;4.43;3.70;;;9.90;99.90;;;;;;6257883;22;20382;-59
2022/04/20 06:14:51;;;;;;;4.40;3.27;;;9.90;99.90;;;;;;6258107;22;20370;-58
2022/04/20 06:17:16;;;;;;;4.00;2.85;;;9.90;99.90;;;;;;6261439;22;20337;-56
2022/04/20 06:19:42;;;;;;;4.97;3.07;;;10.00;99.90;;;;;;6263649;22;20794;-57
2022/04/20 06:22:08;;;;;;;4.20;2.97;;;10.00;99.90;;;;;;6258445;22;20932;-58
2022/04/20 06:24:33;;;;;;;3.85;2.90;;;10.00;99.90;;;;;;6258560;22;20649;-60
2022/04/20 06:26:59;;;;;;;5.82;3.00;;;10.00;99.90;;;;;;6260961;22;20647;-58
2022/04/20 06:29:24;;;;;;;4.10;2.93;;;10.10;99.90;;;;;;6258469;22;20340;-59
2022/04/20 06:31:51;;;;;;;4.22;2.80;;;10.10;99.90;;;;;;6259027;22;20852;-59
2022/04/20 06:34:18;;;;;;;6.22;2.88;;;10.20;99.90;;;;;;6260805;22;20393;-59
2022/04/20 06:36:43;;;;;;;5.45;3.15;;;10.10;99.90;;;;;;6258756;22;20355;-58
2022/04/20 06:39:09;;;;;;;3.73;3.20;;;10.20;99.90;;;;;;6259046;22;20360;-57
2022/04/20 06:41:35;;;;;;;4.73;3.30;;;10.20;99.90;;;;;;6259126;22;20746;-54
2022/04/20 06:44:00;;;;;;;5.30;3.60;;;10.20;99.90;;;;;;6258585;22;20355;-59
2022/04/20 06:46:26;;;;;;;4.87;3.63;;;10.20;99.90;;;;;;6259413;22;20356;-59
2022/04/20 06:48:52;;;;;;;5.45;3.30;;;10.20;99.90;;;;;;6259374;22;20414;-59
2022/04/20 06:51:17;;;;;;;4.87;3.20;;;10.30;99.90;;;;;;6259282;22;20455;-59
2022/04/20 06:59:13;;;;;;;4.63;3.05;;;10.40;99.90;;;;;;6225495;22;20746;-59
2022/04/20 07:01:38;;;;;;;4.68;3.30;;;10.40;99.90;;;;;;6257779;22;20678;-56
2022/04/20 07:04:05;;;;;;;4.53;3.00;;;10.50;99.90;;;;;;6259256;22;20351;-58
2022/04/20 07:06:31;;;;;;;4.10;2.60;;;10.50;99.90;;;;;;6260955;22;20356;-58
2022/04/20 07:08:56;;;;;;;6.00;3.50;;;10.50;99.90;;;;;;6259623;22;20799;-59
2022/04/20 07:11:22;;;;;;;3.20;2.50;;;10.60;99.90;;;;;;6258277;22;20660;-59
2022/04/20 07:13:48;;;;;;;5.10;2.90;;;10.60;99.90;;;;;;6257323;22;20355;-59
2022/04/20 07:16:13;;;;;;;3.63;2.80;;;10.70;99.90;;;;;;6257802;22;20473;-57
2022/04/20 07:18:39;;;;;;;4.77;2.43;;;10.80;99.90;;;;;;6254234;22;20352;-58
2022/04/20 07:21:05;;;;;;;4.27;2.80;;;10.90;99.90;;;;;;6254120;22;20592;-59
2022/04/20 07:23:30;;;;;;;3.30;2.63;;;10.90;99.90;;;;;;6256615;22;20723;-59
2022/04/20 07:25:56;;;;;;;2.92;2.58;;;11.00;99.90;;;;;;6256906;22;20344;-56
2022/04/20 07:28:21;;;;;;;3.17;2.37;;;11.00;99.90;;;;;;6256462;22;20364;-57
2022/04/20 07:30:47;;;;;;;3.53;2.33;;;11.10;99.90;;;;;;6254258;22;20379;-57
2022/04/20 07:33:16;;;;;;;3.63;2.08;;;11.10;99.90;;;;;;6259138;22;20344;-57
2022/04/20 07:35:45;;;;;;;3.85;2.40;;;11.10;99.90;;;;;;6264876;22;20372;-53
2022/04/20 07:38:12;;;;;;;2.67;2.20;;;11.20;99.90;;;;;;6264718;22;20394;-58
2022/04/20 07:40:37;;;;;;;2.67;1.95;;;11.20;99.90;;;;;;6264422;22;20386;-56
2022/04/20 07:43:03;;;;;;;2.97;2.17;;;11.20;99.90;;;;;;6263904;22;20359;-59
2022/04/20 07:45:28;;;;;;;4.10;2.10;;;11.30;99.90;;;;;;6259848;22;20681;-57
2022/04/20 07:47:55;;;;;;;2.78;1.85;;;11.40;99.90;;;;;;6257173;22;20724;-59
2022/04/20 07:50:23;;;;;;;3.50;2.30;;;11.40;99.90;;;;;;6255319;22;20344;-59
2022/04/20 07:52:52;;;;;;;3.50;1.98;;;11.50;99.90;;;;;;6261910;22;20336;-57
2022/04/20 07:55:24;;;;;;;4.00;2.05;;;11.50;99.90;;;;;;6263571;22;20367;-57
2022/04/20 07:57:56;;;;;;;4.13;2.07;;;11.60;99.90;;;;;;6262853;22;20344;-59
2022/04/20 08:00:22;;;;;;;4.32;2.00;;;11.60;99.90;;;;;;6262546;22;20423;-59
2022/04/20 08:02:48;;;;;;;2.30;1.90;;;11.70;99.90;;;;;;6259675;22;20748;-58
2022/04/20 08:05:16;;;;;;;3.00;2.00;;;11.70;99.90;;;;;;6260786;22;20366;-58
2022/04/20 08:07:43;;;;;;;3.70;1.92;;;11.80;99.90;;;;;;6260644;22;20478;-57
2022/04/20 08:10:09;;;;;;;3.15;2.10;;;11.90;99.90;;;;;;6256088;22;20367;-59
2022/04/20 08:12:40;;;;;;;3.05;1.58;;;12.00;99.90;;;;;;6258255;22;20340;-57
2022/04/20 08:15:08;;;;;;;2.00;1.52;;;12.00;99.90;;;;;;6257241;22;20344;-59
2022/04/20 08:17:34;;;;;;;3.10;1.80;;;12.00;99.90;;;;;;6259386;22;20347;-58
2022/04/20 08:20:00;;;;;;;4.03;1.73;;;12.10;99.90;;;;;;6258674;22;20443;-58
2022/04/20 08:22:26;;;;;;;2.42;1.80;;;12.10;99.90;;;;;;6261638;22;20665;-56
2022/04/20 08:24:53;;;;;;;2.58;1.80;;;12.10;99.90;;;;;;6262373;22;20485;-56
2022/04/20 08:27:20;;;;;;;1.60;1.50;;;12.20;99.90;;;;;;6263748;22;20368;-58
2022/04/20 08:29:47;;;;;;;2.92;2.00;;;12.20;99.90;;;;;;6261948;22;20490;-60
2022/04/20 08:32:14;;;;;;;1.50;1.40;;;12.30;99.90;;;;;;6259474;22;20485;-60
2022/04/20 08:34:40;;;;;;;3.63;1.77;;;12.40;99.90;;;;;;6257579;22;20340;-60
2022/04/20 08:37:05;;;;;;;2.92;2.17;;;12.40;99.90;;;;;;6259325;22;20666;-58
2022/04/20 08:39:31;;;;;;;1.35;1.25;;;12.50;99.90;;;;;;6261718;22;20333;-57
2022/04/20 08:41:59;;;;;;;2.43;1.80;;;12.50;99.90;;;;;;6261959;22;20343;-59
2022/04/20 08:44:27;;;;;;;2.67;1.70;;;12.60;99.90;;;;;;6261347;22;20533;-59
2022/04/20 08:46:59;;;;;;;2.47;1.70;;;12.60;99.90;;;;;;6262302;22;20726;-58
2022/04/20 08:49:25;;;;;;;3.30;1.70;;;12.60;99.90;;;;;;6234671;22;20785;-58
2022/04/20 08:54:36;;;;;;;3.70;1.80;;;12.60;99.90;;;;;;6263368;22;20339;-58
2022/04/20 08:57:19;;;;;;;3.30;1.90;;;12.70;99.90;;;;;;6238313;22;20340;-57
2022/04/20 08:59:48;;;;;;;3.45;2.10;;;12.80;99.90;;;;;;6235808;22;20345;-59
2022/04/20 09:02:17;;;;;;;2.07;1.63;;;12.80;99.90;;;;;;6242609;22;20439;-59
2022/04/20 09:04:44;;;;;;;4.57;2.42;;;12.90;99.90;;;;;;6244397;22;20447;-59
2022/04/20 09:07:14;;;;;;;2.85;1.77;;;12.90;99.90;;;;;;6242199;22;20360;-59
2022/04/20 09:09:40;;;;;;;2.85;1.85;;;12.90;99.90;;;;;;6246215;22;20376;-56
2022/04/20 09:12:20;;;;;;;2.63;1.87;;;13.00;99.90;;;;;;6243685;22;20344;-59
2022/04/20 09:14:51;;;;;;;2.40;1.67;;;13.00;99.90;;;;;;6271707;22;20374;-57
2022/04/20 09:17:19;;;;;;;3.95;2.20;;;13.10;99.90;;;;;;6247331;22;20734;-57
2022/04/20 09:19:46;;;;;;;3.10;2.05;;;13.10;99.90;;;;;;6248309;22;20452;-56
2022/04/20 09:22:24;;;;;;;2.85;1.88;;;13.20;99.90;;;;;;6249444;22;20747;-57
2022/04/20 09:25:08;;;;;;;2.33;1.73;;;13.30;99.90;;;;;;6272759;22;20341;-56
2022/04/20 09:27:39;;;;;;;3.15;2.10;;;13.40;99.90;;;;;;6270464;22;20739;-56
2022/04/20 09:30:16;;;;;;;2.35;1.85;;;13.50;99.90;;;;;;6243650;22;20486;-57
2022/04/20 09:32:43;;;;;;;2.22;1.80;;;13.60;99.90;;;;;;6243313;22;20770;-57
2022/04/20 09:35:16;;;;;;;2.30;1.80;;;13.60;99.90;;;;;;6244688;22;20379;-56
2022/04/20 09:37:43;;;;;;;1.98;1.77;;;13.70;99.90;;;;;;6244909;22;20383;-59
2022/04/20 09:40:13;;;;;;;3.42;2.00;;;13.70;99.90;;;;;;6243638;22;20353;-57
2022/04/20 09:43:02;;;;;;;3.60;1.70;;;13.70;99.90;;;;;;6235826;22;20651;-59
2022/04/20 09:45:29;;;;;;;2.65;1.52;;;13.80;99.90;;;;;;6259971;22;20378;-57
2022/04/20 09:50:40;;;;;;;2.50;1.88;;;13.80;99.90;;;;;;6260132;22;20713;-59
2022/04/20 09:53:07;;;;;;;2.50;1.95;;;13.80;99.90;;;;;;6260382;22;20352;-59
2022/04/20 09:55:37;;;;;;;2.55;1.58;;;13.80;99.90;;;;;;6260523;22;20354;-57
2022/04/20 09:58:19;;;;;;;2.60;1.63;;;13.80;99.90;;;;;;6259998;22;20669;-56
2022/04/20 10:00:52;;;;;;;2.97;1.30;;;13.90;99.90;;;;;;6259389;22;20451;-60
2022/04/20 10:03:26;;;;;;;2.47;1.60;;;13.90;99.90;;;;;;6258940;22;20392;-60
2022/04/20 10:05:53;;;;;;;3.03;1.50;;;14.00;99.90;;;;;;6260006;22;20773;-60
2022/04/20 10:08:20;;;;;;;1.90;1.20;;;14.10;99.90;;;;;;6260357;22;20951;-59
2022/04/20 10:10:47;;;;;;;1.88;1.50;;;14.00;99.90;;;;;;6259826;22;20344;-59
2022/04/20 10:13:13;;;;;;;2.35;1.70;;;14.10;99.90;;;;;;6259118;22;20391;-58
2022/04/20 10:18:28;;;;;;;2.80;1.70;;;14.10;99.90;;;;;;6265737;22;20652;-59
2022/04/20 10:20:58;;;;;;;2.20;1.40;;;14.10;99.90;;;;;;6264994;22;20422;-60
2022/04/20 10:23:25;;;;;;;2.25;1.38;;;14.10;99.90;;;;;;6263183;22;20588;-58
2022/04/20 10:25:53;;;;;;;2.75;1.67;;;14.20;99.90;;;;;;6261223;22;20352;-57
2022/04/20 10:28:45;;;;;;;4.03;1.70;;;14.30;99.90;;;;;;6259282;22;20670;-60
2022/04/20 10:32:06;;;;;;;1.48;1.30;;;14.30;99.90;;;;;;6260232;22;20383;-59
2022/04/20 10:34:33;;;;;;;2.03;1.40;;;14.40;99.90;;;;;;6168091;23;20361;-59
2022/04/20 10:37:01;;;;;;;2.70;1.52;;;14.50;99.90;;;;;;6144003;23;20369;-57
2022/04/20 10:39:33;;;;;;;2.90;1.60;;;14.60;99.90;;;;;;6224285;22;20738;-59
2022/04/20 10:42:19;;;;;;;1.95;1.33;;;14.50;99.90;;;;;;6259669;22;20397;-60
2022/04/20 10:45:07;;;;;;;3.17;1.73;;;14.60;99.90;;;;;;6258599;22;20348;-59
2022/04/20 10:47:36;;;;;;;2.05;1.23;;;14.70;99.90;;;;;;6256553;22;20387;-58
2022/04/20 10:50:21;;;;;;;1.90;1.57;;;14.80;99.90;;;;;;6255093;22;20338;-59
2022/04/20 10:52:58;;;;;;;1.88;1.63;;;14.80;99.90;;;;;;6230170;22;20604;-60
2022/04/20 10:55:35;;;;;;;2.17;1.80;;;14.90;99.90;;;;;;6232516;22;20356;-59
2022/04/20 10:58:16;;;;;;;3.92;1.90;;;14.90;99.90;;;;;;6233495;22;20352;-59
2022/04/20 11:00:42;;;;;;;2.83;1.60;;;15.00;99.90;;;;;;6235696;22;20403;-58
2022/04/20 11:03:10;;;;;;;3.60;1.50;;;15.00;99.90;;;;;;6235343;22;20359;-59
2022/04/20 11:05:55;;;;;;;2.35;1.60;;;15.00;99.90;;;;;;6233121;22;20831;-59
2022/04/20 11:08:22;;;;;;;2.10;1.52;;;15.20;99.90;;;;;;6261169;22;20781;-58
2022/04/20 11:19:48;;;;;;;2.78;1.40;;;16.40;99.90;;;;;;6171353;23;20402;-60
2022/04/20 11:22:14;;;;;;;3.73;1.57;;;16.80;99.90;;;;;;6169816;23;20428;-60
2022/04/20 11:24:39;;;;;;;2.67;1.40;;;17.10;99.90;;;;;;6208004;22;20352;-57
2022/04/20 11:27:06;;;;;;;2.30;1.30;;;17.40;99.90;;;;;;6267802;22;20344;-57
2022/04/20 11:29:32;;;;;;;2.13;1.33;;;17.70;99.90;;;;;;6245208;22;20348;-55
2022/04/20 11:32:02;;;;;;;3.10;1.50;;;17.80;99.90;;;;;;6245828;22;20344;-56
2022/04/20 11:34:33;;;;;;;2.90;1.73;;;17.80;99.90;;;;;;6245615;22;20993;-56
2022/04/20 11:37:00;;;;;;;3.25;1.63;;;17.80;99.90;;;;;;6246210;22;20456;-56
2022/04/20 11:39:28;;;;;;;3.13;1.70;;;18.00;99.90;;;;;;6244387;22;20619;-56
2022/04/20 11:42:05;;;;;;;2.40;1.45;;;18.10;99.90;;;;;;6270216;22;20345;-58
2022/04/20 11:44:41;;;;;;;1.50;1.10;;;18.30;99.90;;;;;;6268458;22;20607;-57
2022/04/20 11:47:09;;;;;;;2.78;1.33;;;18.60;99.90;;;;;;6268817;22;20996;-57
2022/04/20 11:49:38;;;;;;;2.22;1.10;;;19.00;99.90;;;;;;6242210;22;20442;-55
2022/04/20 11:52:07;;;;;;;2.08;1.20;;;19.00;99.90;;;;;;6268153;22;20458;-54
2022/04/20 11:54:34;;;;;;;3.88;2.00;;;19.00;99.90;;;;;;6241251;22;20348;-58
2022/04/20 11:57:00;;;;;;;1.50;1.30;;;18.90;99.90;;;;;;6240372;22;20347;-58
2022/04/20 11:59:27;;;;;;;1.20;1.10;;;18.80;99.90;;;;;;6268677;22;20417;-54
2022/04/20 12:01:54;;;;;;;2.00;1.38;;;18.80;99.90;;;;;;6242118;22;20410;-53
2022/04/20 12:04:22;;;;;;;2.13;1.40;;;18.80;99.90;;;;;;6243576;22;20464;-52
2022/04/20 12:06:49;;;;;;;2.73;1.20;;;18.90;99.90;;;;;;6245075;22;20368;-58
2022/04/20 12:09:18;;;;;;;1.20;1.00;;;19.00;99.90;;;;;;6244998;22;20397;-58
2022/04/20 12:11:44;;;;;;;1.60;1.10;;;18.90;99.90;;;;;;6270768;22;20344;-56
2022/04/20 12:14:09;;;;;;;1.30;0.93;;;18.80;99.90;;;;;;6244102;22;20376;-61
2022/04/20 12:16:36;;;;;;;1.83;1.20;;;18.80;99.90;;;;;;6267474;22;20862;-60
2022/04/20 12:19:02;;;;;;;1.90;1.05;;;18.70;99.90;;;;;;6241612;22;20850;-59
2022/04/20 12:21:45;;;;;;;1.33;1.13;;;18.80;99.90;;;;;;6242596;22;20368;-59
2022/04/20 12:24:20;;;;;;;2.80;1.40;;;18.90;99.90;;;;;;6217146;22;20645;-58
2022/04/20 12:26:50;;;;;;;2.00;1.30;;;19.00;99.90;;;;;;6242761;22;20360;-60
2022/04/20 12:29:19;;;;;;;2.88;1.20;;;19.30;99.90;;;;;;6242377;22;20474;-60
2022/04/20 12:31:54;;;;;;;2.40;1.27;;;19.50;99.90;;;;;;6269631;22;20379;-59
2022/04/20 12:34:21;;;;;;;2.63;1.20;;;19.90;99.90;;;;;;6242055;22;20374;-59
2022/04/20 12:37:14;;;;;;;1.48;1.10;;;20.20;99.90;;;;;;6244576;22;20364;-59
2022/04/20 12:39:42;;;;;;;1.85;1.30;;;20.40;99.90;;;;;;6242874;22;20344;-59
2022/04/20 12:42:17;;;;;;;1.67;1.20;;;20.50;99.90;;;;;;6271564;22;20344;-58
2022/04/20 12:44:52;;;;;;;2.55;1.30;;;20.50;99.90;;;;;;6245118;22;20364;-59
2022/04/20 12:47:18;;;;;;;2.60;1.40;;;20.70;99.90;;;;;;6248245;22;20363;-59
2022/04/20 12:49:45;;;;;;;1.80;1.40;;;20.90;99.90;;;;;;6265667;22;20375;-59
2022/04/20 12:52:16;;;;;;;1.58;1.10;;;21.20;99.90;;;;;;6264626;22;20367;-59
2022/04/20 12:55:00;;;;;;;1.75;1.30;;;21.40;99.90;;;;;;6264319;22;20432;-59
2022/04/20 13:03:02;;;;;;;1.83;1.17;;;21.00;99.90;;;;;;6268137;22;20343;-58
2022/04/20 13:05:29;;;;;;;2.00;1.10;;;21.20;99.90;;;;;;6267502;22;20376;-59
2022/04/20 13:07:54;;;;;;;1.50;1.10;;;21.40;99.90;;;;;;6263539;22;20942;-59
2022/04/20 13:10:22;;;;;;;1.17;0.90;;;21.50;99.90;;;;;;6265642;22;20340;-60
2022/04/20 13:12:53;;;;;;;1.65;1.17;;;21.60;99.90;;;;;;6265092;22;20782;-59
2022/04/20 13:15:31;;;;;;;1.80;1.10;;;21.80;99.90;;;;;;5118148;27;20867;-57
2022/04/20 13:17:57;;;;;;;3.38;1.10;;;22.00;99.90;;;;;;5102033;28;20484;-59
2022/04/20 13:20:27;;;;;;;1.05;0.90;;;22.10;99.90;;;;;;5103849;28;20432;-58
2022/04/20 13:22:53;;;;;;;1.67;1.20;;;22.40;99.90;;;;;;5105546;28;20448;-59
2022/04/20 13:28:02;;;;;;;2.20;1.10;;;22.30;99.90;;;;;;5105454;28;20376;-58
2022/04/20 13:30:36;;;;;;;1.02;0.82;;;22.60;99.90;;;;;;5104174;28;20378;-58